createdAt,value
2023-03-03T00:01:49.852Z,96037.61
2023-03-03T00:04:17.847Z,96033.61
2023-03-03T00:06:46.150Z,96034.38
2023-03-03T00:09:14.090Z,96033.42
2023-03-03T00:11:41.994Z,96032.60
2023-03-03T00:14:28.428Z,96028.84
2023-03-03T00:16:57.279Z,96028.56
2023-03-03T00:19:25.647Z,96029.48
2023-03-03T00:21:58.424Z,96031.82
2023-03-03T00:24:38.508Z,96028.51
2023-03-03T00:27:34.772Z,96030.00
2023-03-03T00:30:03.252Z,96024.10
2023-03-03T00:32:42.253Z,96020.73
2023-03-03T00:35:30.463Z,96015.61
2023-03-03T00:38:11.775Z,96015.42
2023-03-03T00:40:41.211Z,96009.48
2023-03-03T00:43:23.196Z,96010.29
2023-03-03T00:45:58.640Z,96011.77
2023-03-03T00:48:29.846Z,96010.34
2023-03-03T00:51:00.396Z,96008.50
2023-03-03T00:53:30.863Z,96007.54
2023-03-03T00:55:58.972Z,96006.80
2023-03-03T00:58:27.779Z,96004.20
2023-03-03T01:00:56.889Z,96003.84
2023-03-03T01:03:28.698Z,96004.77
2023-03-03T01:05:57.411Z,96001.66
2023-03-03T01:08:25.398Z,96000.42
2023-03-03T01:10:57.564Z,95997.17
2023-03-03T01:13:32.303Z,95995.29
2023-03-03T01:16:02.113Z,95993.05
2023-03-03T01:18:30.950Z,95994.92
2023-03-03T01:20:59.211Z,95992.42
2023-03-03T01:23:28.532Z,95988.65
2023-03-03T01:25:57.185Z,95987.52
2023-03-03T01:28:25.238Z,95987.45
2023-03-03T01:30:53.514Z,95990.87
2023-03-03T01:33:21.482Z,95990.89
2023-03-03T01:35:49.491Z,95987.71
2023-03-03T01:38:17.472Z,95986.25
2023-03-03T01:40:53.837Z,95982.55
2023-03-03T01:43:22.260Z,95981.34
2023-03-03T01:45:50.257Z,95979.36
2023-03-03T01:48:28.772Z,95978.11
2023-03-03T01:51:02.253Z,95978.02
2023-03-03T01:53:44.659Z,95981.98
2023-03-03T01:56:13.900Z,95979.27
2023-03-03T01:58:50.003Z,95978.94
2023-03-03T02:01:23.165Z,95977.02
2023-03-03T02:03:53.369Z,95977.00
2023-03-03T02:06:25.462Z,95976.98
2023-03-03T02:09:20.622Z,95976.62
2023-03-03T02:11:52.610Z,95974.02
2023-03-03T02:14:20.957Z,95974.35
2023-03-03T02:16:49.016Z,95974.15
2023-03-03T02:19:43.231Z,95976.30
2023-03-03T02:22:14.755Z,95973.99
2023-03-03T02:25:04.046Z,95973.05
2023-03-03T02:27:33.731Z,95970.23
2023-03-03T02:30:20.160Z,95971.83
2023-03-03T02:32:48.254Z,95972.22
2023-03-03T02:35:30.356Z,95969.89
2023-03-03T02:38:09.888Z,95969.80
2023-03-03T02:40:45.788Z,95967.84
2023-03-03T02:43:18.704Z,95963.80
2023-03-03T02:45:47.431Z,95964.05
2023-03-03T02:48:15.823Z,95964.27
2023-03-03T02:50:46.258Z,95964.79
2023-03-03T02:53:14.398Z,95965.79
2023-03-03T02:55:42.520Z,95962.66
2023-03-03T02:58:10.512Z,95960.03
2023-03-03T03:04:40.866Z,95959.01
2023-03-03T03:07:12.007Z,95957.59
2023-03-03T03:09:40.772Z,95958.95
2023-03-03T03:12:08.799Z,95956.17
2023-03-03T03:14:37.856Z,95950.23
2023-03-03T03:17:06.712Z,95948.22
2023-03-03T03:19:34.709Z,95948.83
2023-03-03T03:22:03.611Z,95946.76
2023-03-03T03:24:32.788Z,95949.77
2023-03-03T03:27:04.048Z,95950.39
2023-03-03T03:29:32.335Z,95949.08
2023-03-03T03:32:00.537Z,95947.33
2023-03-03T03:34:28.724Z,95947.08
2023-03-03T03:36:57.155Z,95941.59
2023-03-03T03:39:25.679Z,95944.58
2023-03-03T03:41:54.103Z,95940.49
2023-03-03T03:44:24.069Z,95941.39
2023-03-03T03:46:52.510Z,95936.49
2023-03-03T03:49:21.720Z,95937.60
2023-03-03T03:51:50.679Z,95934.55
2023-03-03T03:54:20.053Z,95934.04
2023-03-03T03:56:48.223Z,95931.83
2023-03-03T03:59:16.167Z,95930.08
2023-03-03T04:01:44.972Z,95928.35
2023-03-03T04:04:13.023Z,95927.02
2023-03-03T04:06:41.367Z,95923.17
2023-03-03T04:09:09.409Z,95921.59
2023-03-03T04:11:37.563Z,95918.79
2023-03-03T04:14:06.690Z,95922.60
2023-03-03T04:16:35.916Z,95922.00
2023-03-03T04:19:04.428Z,95920.65
2023-03-03T04:21:33.908Z,95919.39
2023-03-03T04:24:03.319Z,95919.09
2023-03-03T04:26:31.837Z,95916.97
2023-03-03T04:29:01.722Z,95918.77
2023-03-03T04:31:30.138Z,95923.77
2023-03-03T04:33:58.743Z,95923.12
2023-03-03T04:36:27.391Z,95920.15
2023-03-03T04:38:55.468Z,95919.80
2023-03-03T04:41:24.140Z,95924.23
2023-03-03T04:43:52.150Z,95922.24
2023-03-03T04:46:20.254Z,95922.23
2023-03-03T04:48:48.822Z,95926.61
2023-03-03T04:51:16.982Z,95924.97
2023-03-03T04:53:45.976Z,95921.45
2023-03-03T04:56:15.221Z,95924.10
2023-03-03T04:58:43.506Z,95919.89
2023-03-03T05:01:15.039Z,95918.90
2023-03-03T05:03:44.091Z,95918.77
2023-03-03T05:06:12.835Z,95921.07
2023-03-03T05:08:43.952Z,95919.57
2023-03-03T05:11:11.979Z,95918.58
2023-03-03T05:13:40.241Z,95919.30
2023-03-03T05:16:09.130Z,95917.30
2023-03-03T05:18:37.382Z,95917.05
2023-03-03T05:21:06.626Z,95916.45
2023-03-03T05:23:34.618Z,95915.27
2023-03-03T05:26:02.795Z,95911.52
2023-03-03T05:28:30.848Z,95914.24
2023-03-03T05:30:58.887Z,95915.38
2023-03-03T05:33:26.937Z,95921.30
2023-03-03T05:35:56.536Z,95916.61
2023-03-03T05:38:25.554Z,95920.65
2023-03-03T05:40:54.865Z,95919.70
2023-03-03T05:43:22.893Z,95915.99
2023-03-03T05:46:01.041Z,95915.58
2023-03-03T05:48:29.263Z,95914.29
2023-03-03T05:51:00.685Z,95913.70
2023-03-03T05:53:29.641Z,95914.64
2023-03-03T05:55:57.830Z,95917.16
2023-03-03T05:58:26.737Z,95916.75
2023-03-03T06:00:55.070Z,95912.36
2023-03-03T06:03:23.168Z,95912.08
2023-03-03T06:05:51.088Z,95911.64
2023-03-03T06:08:19.809Z,95914.35
2023-03-03T06:10:47.888Z,95914.60
2023-03-03T06:13:16.343Z,95913.08
2023-03-03T06:15:44.974Z,95912.42
2023-03-03T06:18:13.142Z,95912.02
2023-03-03T06:20:41.291Z,95914.27
2023-03-03T06:23:09.620Z,95915.65
2023-03-03T06:25:39.704Z,95915.41
2023-03-03T06:28:08.009Z,95914.84
2023-03-03T06:30:36.213Z,95916.73
2023-03-03T06:33:04.262Z,95915.44
2023-03-03T06:35:32.354Z,95916.84
2023-03-03T06:38:00.409Z,95916.94
2023-03-03T06:40:28.531Z,95917.48
2023-03-03T06:42:56.707Z,95918.47
2023-03-03T06:45:24.780Z,95921.58
2023-03-03T06:47:52.973Z,95921.30
2023-03-03T06:50:21.634Z,95919.16
2023-03-03T06:53:05.527Z,95921.07
2023-03-03T06:55:33.812Z,95920.95
2023-03-03T06:58:02.907Z,95924.30
2023-03-03T07:00:31.412Z,95921.04
2023-03-03T07:03:12.172Z,95926.17
2023-03-03T07:05:40.521Z,95927.81
2023-03-03T07:08:21.042Z,95930.21
2023-03-03T07:10:50.654Z,95928.50
2023-03-03T07:13:20.464Z,95929.17
2023-03-03T07:15:50.408Z,95926.04
2023-03-03T07:18:53.564Z,95924.64
2023-03-03T07:21:38.857Z,95930.04
2023-03-03T07:24:31.460Z,95933.61
2023-03-03T07:27:19.806Z,95933.37
2023-03-03T07:29:49.579Z,95935.58
2023-03-03T07:32:47.566Z,95937.27
2023-03-03T07:35:34.265Z,95935.75
2023-03-03T07:38:03.041Z,95936.55
2023-03-03T07:40:34.409Z,95938.16
2023-03-03T07:43:29.153Z,95933.73
2023-03-03T07:46:30.232Z,95932.72
2023-03-03T07:49:00.426Z,95933.94
2023-03-03T07:51:37.299Z,95928.15
2023-03-03T07:54:35.351Z,95927.53
2023-03-03T07:57:27.313Z,95925.38
2023-03-03T08:00:09.458Z,95928.52
2023-03-03T08:02:55.585Z,95926.47
2023-03-03T08:05:29.798Z,95924.54
2023-03-03T08:08:10.616Z,95922.65
2023-03-03T08:10:48.308Z,95922.98
2023-03-03T08:13:22.385Z,95922.38
2023-03-03T08:15:53.774Z,95925.48
2023-03-03T08:18:23.807Z,95924.17
2023-03-03T08:21:01.189Z,95924.24
2023-03-03T08:23:29.235Z,95926.56
2023-03-03T08:25:57.429Z,95926.44
2023-03-03T08:28:26.541Z,95925.45
2023-03-03T08:31:08.954Z,95926.61
2023-03-03T08:33:42.955Z,95926.20
2023-03-03T08:36:12.256Z,95924.23
2023-03-03T08:38:41.006Z,95923.30
2023-03-03T08:41:10.135Z,95920.20
2023-03-03T08:43:38.438Z,95918.77
2023-03-03T08:46:10.528Z,95922.08
2023-03-03T08:48:40.007Z,95918.23
2023-03-03T08:51:08.299Z,95918.08
2023-03-03T08:53:38.316Z,95918.17
2023-03-03T08:56:07.156Z,95915.90
2023-03-03T08:58:36.489Z,95918.31
2023-03-03T09:01:05.127Z,95921.72
2023-03-03T09:03:33.237Z,95917.45
2023-03-03T09:06:01.198Z,95916.76
2023-03-03T09:08:29.752Z,95914.75
2023-03-03T09:10:58.281Z,95916.09
2023-03-03T09:13:30.446Z,95914.35
2023-03-03T09:15:58.849Z,95913.56
2023-03-03T09:18:38.678Z,95912.91
2023-03-03T09:21:34.416Z,95910.04
2023-03-03T09:24:02.437Z,95908.70
2023-03-03T09:26:40.396Z,95910.20
2023-03-03T09:29:14.211Z,95904.80
2023-03-03T09:31:49.434Z,95898.14
2023-03-03T09:34:42.929Z,95893.33
2023-03-03T09:37:37.435Z,95894.07
2023-03-03T09:40:36.395Z,95893.02
2023-03-03T09:43:18.926Z,95894.91
2023-03-03T09:46:06.775Z,95890.52
2023-03-03T09:48:40.976Z,95891.11
2023-03-03T09:51:51.654Z,95894.18
2023-03-03T09:54:32.002Z,95892.40
2023-03-03T09:57:05.945Z,95888.30
2023-03-03T09:59:42.890Z,95889.91
2023-03-03T10:02:26.079Z,95889.85
2023-03-03T10:05:14.343Z,95887.92
2023-03-03T10:08:01.070Z,95888.14
2023-03-03T10:10:52.372Z,95885.74
2023-03-03T10:13:20.621Z,95885.67
2023-03-03T10:16:04.167Z,95885.85
2023-03-03T10:18:58.515Z,95885.85
2023-03-03T10:21:51.932Z,95882.90
2023-03-03T10:24:22.997Z,95878.72
2023-03-03T10:27:12.125Z,95874.80
2023-03-03T10:29:46.400Z,95868.20
2023-03-03T10:32:29.753Z,95864.33
2023-03-03T10:35:13.137Z,95856.94
2023-03-03T10:38:00.045Z,95853.20
2023-03-03T10:40:43.448Z,95854.48
2023-03-03T10:43:32.739Z,95850.33
2023-03-03T10:46:13.101Z,95847.23
2023-03-03T10:48:53.434Z,95841.14
2023-03-03T10:51:35.357Z,95844.23
2023-03-03T10:54:21.683Z,95839.66
2023-03-03T10:56:58.963Z,95835.48
2023-03-03T10:59:58.036Z,95833.67
2023-03-03T11:02:46.917Z,95833.04
2023-03-03T11:05:35.852Z,95825.80
2023-03-03T11:08:11.560Z,95827.37
2023-03-03T11:11:02.705Z,95824.17
2023-03-03T11:13:42.158Z,95816.27
2023-03-03T11:16:49.030Z,95817.70
2023-03-03T11:19:36.168Z,95816.67
2023-03-03T11:22:14.758Z,95816.20
2023-03-03T11:24:45.947Z,95815.54
2023-03-03T11:27:27.182Z,95812.61
2023-03-03T11:30:20.635Z,95809.08
2023-03-03T11:33:05.192Z,95803.82
2023-03-03T11:35:36.046Z,95805.30
2023-03-03T11:38:31.794Z,95807.14
2023-03-03T11:41:13.717Z,95809.55
2023-03-03T11:43:53.462Z,95810.72
2023-03-03T11:46:31.886Z,95803.80
2023-03-03T11:49:30.360Z,95800.25
2023-03-03T11:52:13.462Z,95795.82
2023-03-03T11:55:03.287Z,95788.36
2023-03-03T11:57:46.694Z,95786.71
2023-03-03T12:00:20.966Z,95785.75
2023-03-03T12:03:10.820Z,95790.77
2023-03-03T12:06:07.819Z,95792.77
2023-03-03T12:08:42.855Z,95790.79
2023-03-03T12:11:28.610Z,95795.02
2023-03-03T12:14:23.648Z,95790.52
2023-03-03T12:17:03.359Z,95788.35
2023-03-03T12:19:39.598Z,95790.48
2023-03-03T12:22:30.981Z,95787.25
2023-03-03T12:25:43.879Z,95787.19
2023-03-03T12:28:17.476Z,95783.59
2023-03-03T12:31:06.936Z,95781.85
2023-03-03T12:33:38.022Z,95783.90
2023-03-03T12:36:24.008Z,95783.52
2023-03-03T12:39:05.670Z,95780.84
2023-03-03T12:42:12.045Z,95784.27
2023-03-03T12:45:08.631Z,95779.40
2023-03-03T12:47:58.682Z,95775.32
2023-03-03T12:50:49.280Z,95778.70
2023-03-03T12:53:38.991Z,95783.34
2023-03-03T12:56:11.126Z,95781.10
2023-03-03T12:59:21.354Z,95779.66
2023-03-03T13:02:34.322Z,95773.71
2023-03-03T13:05:16.335Z,95771.93
2023-03-03T13:08:09.044Z,95769.14
2023-03-03T13:10:53.467Z,95765.48
2023-03-03T13:13:26.927Z,95764.46
2023-03-03T13:16:10.097Z,95760.92
2023-03-03T13:19:16.048Z,95760.86
2023-03-03T13:21:54.793Z,95766.32
2023-03-03T13:24:29.895Z,95764.45
2023-03-03T13:27:08.363Z,95764.73
2023-03-03T13:29:42.597Z,95769.96
2023-03-03T13:32:43.425Z,95771.45
2023-03-03T13:35:46.235Z,95770.04
2023-03-03T13:38:20.876Z,95771.11
2023-03-03T13:41:03.169Z,95770.56
2023-03-03T13:43:41.031Z,95774.30
2023-03-03T13:46:16.854Z,95776.32
2023-03-03T13:48:50.653Z,95774.11
2023-03-03T13:51:50.052Z,95769.90
2023-03-03T13:54:43.409Z,95764.94
2023-03-03T13:57:23.389Z,95766.86
2023-03-03T14:00:04.677Z,95769.52
2023-03-03T14:02:40.308Z,95766.73
2023-03-03T14:05:35.999Z,95763.08
2023-03-03T14:08:13.809Z,95761.91
2023-03-03T14:11:07.470Z,95758.68
2023-03-03T14:13:58.745Z,95762.06
2023-03-03T14:16:49.380Z,95763.19
2023-03-03T14:19:24.117Z,95761.30
2023-03-03T14:22:24.862Z,95759.14
2023-03-03T14:25:02.590Z,95759.17
2023-03-03T14:27:54.152Z,95756.14
2023-03-03T14:30:22.147Z,95755.71
2023-03-03T14:33:08.454Z,95754.50
2023-03-03T14:35:48.753Z,95758.27
2023-03-03T14:38:23.964Z,95757.79
2023-03-03T14:41:20.756Z,95752.64
2023-03-03T14:44:01.928Z,95753.57
2023-03-03T14:46:41.864Z,95756.20
2023-03-03T14:49:33.011Z,95754.96
2023-03-03T14:52:16.005Z,95754.14
2023-03-03T14:54:53.085Z,95750.77
2023-03-03T14:57:23.843Z,95751.86
2023-03-03T15:00:02.629Z,95755.01
2023-03-03T15:02:36.172Z,95750.89
2023-03-03T15:05:13.533Z,95750.22
2023-03-03T15:07:41.726Z,95750.78
2023-03-03T15:10:13.254Z,95751.27
2023-03-03T15:12:42.800Z,95751.77
2023-03-03T15:15:22.737Z,95754.09
2023-03-03T15:17:50.698Z,95759.92
2023-03-03T15:20:45.522Z,95761.59
2023-03-03T15:23:54.343Z,95760.11
2023-03-03T15:26:46.368Z,95762.94
2023-03-03T15:29:33.016Z,95762.34
2023-03-03T15:32:01.276Z,95758.04
2023-03-03T15:34:48.944Z,95758.06
2023-03-03T15:37:49.616Z,95760.90
2023-03-03T15:40:26.224Z,95756.43
2023-03-03T15:43:12.875Z,95762.05
2023-03-03T15:45:58.007Z,95764.23
2023-03-03T15:48:34.357Z,95765.28
2023-03-03T15:51:42.696Z,95768.55
2023-03-03T15:54:37.034Z,95765.98
2023-03-03T15:57:29.279Z,95766.80
2023-03-03T16:00:16.257Z,95767.45
2023-03-03T16:02:59.118Z,95771.66
2023-03-03T16:05:45.956Z,95771.20
2023-03-03T16:08:29.951Z,95777.67
2023-03-03T16:11:08.708Z,95781.16
2023-03-03T16:14:02.490Z,95779.83
2023-03-03T16:16:42.465Z,95780.92
2023-03-03T16:19:21.532Z,95783.62
2023-03-03T16:22:23.914Z,95788.52
2023-03-03T16:25:28.228Z,95793.46
2023-03-03T16:28:06.639Z,95795.88
2023-03-03T16:31:03.272Z,95802.90
2023-03-03T16:33:50.133Z,95810.59
2023-03-03T16:36:18.006Z,95812.05
2023-03-03T16:38:58.498Z,95815.36
2023-03-03T16:41:42.801Z,95817.89
2023-03-03T16:44:22.873Z,95819.62
2023-03-03T16:46:51.243Z,95822.73
2023-03-03T16:49:37.929Z,95827.33
2023-03-03T16:52:23.925Z,95829.23
2023-03-03T16:55:11.054Z,95830.93
2023-03-03T16:57:54.249Z,95833.13
2023-03-03T17:00:41.124Z,95835.44
2023-03-03T17:03:28.778Z,95837.48
2023-03-03T17:06:27.512Z,95841.20
2023-03-03T17:09:34.414Z,95844.44
2023-03-03T17:12:14.391Z,95843.13
2023-03-03T17:14:55.801Z,95847.08
2023-03-03T17:17:39.101Z,95846.92
2023-03-03T17:20:24.804Z,95845.95
2023-03-03T17:23:14.238Z,95848.81
2023-03-03T17:25:57.340Z,95853.77
2023-03-03T17:28:51.705Z,95854.46
2023-03-03T17:31:38.087Z,95856.39
2023-03-03T17:34:16.317Z,95860.75
2023-03-03T17:37:22.066Z,95858.85
2023-03-03T17:39:55.796Z,95861.75
2023-03-03T17:42:29.966Z,95864.83
2023-03-03T17:45:12.715Z,95864.85
2023-03-03T17:47:55.598Z,95866.23
2023-03-03T17:50:58.305Z,95869.48
2023-03-03T17:53:57.418Z,95869.91
2023-03-03T17:56:32.474Z,95873.62
2023-03-03T17:59:03.412Z,95875.91
2023-03-03T18:01:31.354Z,95875.40
2023-03-03T18:04:19.563Z,95878.32
2023-03-03T18:07:12.787Z,95878.64
2023-03-03T18:10:06.598Z,95875.56
2023-03-03T18:13:12.259Z,95879.55
2023-03-03T18:16:11.252Z,95881.63
2023-03-03T18:19:01.991Z,95880.63
2023-03-03T18:21:48.372Z,95884.44
2023-03-03T18:24:25.344Z,95889.31
2023-03-03T18:26:56.248Z,95894.15
2023-03-03T18:29:29.767Z,95896.00
2023-03-03T18:31:57.830Z,95896.77
2023-03-03T18:34:40.656Z,95901.05
2023-03-03T18:37:10.814Z,95904.66
2023-03-03T18:39:41.163Z,95906.91
2023-03-03T18:42:30.981Z,95908.14
2023-03-03T18:45:29.990Z,95910.86
2023-03-03T18:48:12.432Z,95911.73
2023-03-03T18:50:48.877Z,95910.51
2023-03-03T18:53:25.935Z,95911.14
2023-03-03T18:55:59.221Z,95908.98
2023-03-03T18:58:34.329Z,95905.61
2023-03-03T19:01:10.792Z,95906.39
2023-03-03T19:03:47.900Z,95903.59
2023-03-03T19:06:37.324Z,95903.73
2023-03-03T19:09:06.594Z,95906.52
2023-03-03T19:11:49.069Z,95908.65
2023-03-03T19:14:17.071Z,95905.02
2023-03-03T19:16:45.659Z,95905.98
2023-03-03T19:19:23.029Z,95906.31
2023-03-03T19:22:39.785Z,95910.55
2023-03-03T19:25:22.621Z,95914.23
2023-03-03T19:28:18.410Z,95915.18
2023-03-03T19:30:59.150Z,95918.99
2023-03-03T19:33:30.095Z,95919.19
2023-03-03T19:36:18.058Z,95916.04
2023-03-03T19:39:02.350Z,95915.34
2023-03-03T19:41:52.088Z,95916.58
2023-03-03T19:44:44.940Z,95920.37
2023-03-03T19:47:32.867Z,95917.56
2023-03-03T19:50:30.871Z,95915.10
2023-03-03T19:53:16.465Z,95916.58
2023-03-03T19:55:53.561Z,95918.52
2023-03-03T19:58:48.212Z,95918.38
2023-03-03T20:01:22.299Z,95916.07
2023-03-03T20:04:11.446Z,95918.90
2023-03-03T20:06:44.464Z,95920.41
2023-03-03T20:09:27.337Z,95920.42
2023-03-03T20:12:19.939Z,95922.58
2023-03-03T20:14:52.041Z,95920.30
2023-03-03T20:17:45.247Z,95923.94
2023-03-03T20:20:40.974Z,95925.95
2023-03-03T20:23:23.267Z,95927.17
2023-03-03T20:25:54.380Z,95931.04
2023-03-03T20:28:44.142Z,95936.66
2023-03-03T20:31:23.788Z,95937.56
2023-03-03T20:34:03.321Z,95940.20
2023-03-03T20:36:59.465Z,95942.66
2023-03-03T20:39:33.846Z,95941.52
2023-03-03T20:42:05.854Z,95946.28
2023-03-03T20:44:59.594Z,95945.65
2023-03-03T20:47:42.973Z,95945.10
2023-03-03T20:50:15.741Z,95948.05
2023-03-03T20:52:56.771Z,95952.50
2023-03-03T20:55:56.034Z,95950.93
2023-03-03T20:58:48.402Z,95954.39
2023-03-03T21:01:49.400Z,95954.40
2023-03-03T21:04:18.852Z,95950.41
2023-03-03T21:06:48.091Z,95950.31
2023-03-03T21:09:34.964Z,95954.99
2023-03-03T21:12:11.451Z,95958.35
2023-03-03T21:14:39.481Z,95958.33
2023-03-03T21:17:30.652Z,95956.27
2023-03-03T21:20:24.877Z,95957.02
2023-03-03T21:22:54.057Z,95960.89
2023-03-03T21:25:40.599Z,95963.39
2023-03-03T21:28:31.331Z,95966.10
2023-03-03T21:31:07.169Z,95968.09
2023-03-03T21:33:48.385Z,95972.49
2023-03-03T21:36:36.554Z,95970.91
2023-03-03T21:39:27.599Z,95972.19
2023-03-03T21:41:59.555Z,95971.67
2023-03-03T21:44:44.690Z,95970.84
2023-03-03T21:47:15.429Z,95971.48
2023-03-03T21:49:46.052Z,95971.48
2023-03-03T21:52:17.144Z,95971.80
2023-03-03T21:54:47.630Z,95973.66
2023-03-03T21:57:16.117Z,95971.45
2023-03-03T21:59:45.357Z,95972.96
2023-03-03T22:02:13.939Z,95972.45
2023-03-03T22:04:42.475Z,95976.60
2023-03-03T22:07:10.989Z,95978.50
2023-03-03T22:09:40.580Z,95983.13
2023-03-03T22:12:08.935Z,95982.42
2023-03-03T22:14:37.643Z,95980.35
2023-03-03T22:17:05.682Z,95979.86
2023-03-03T22:19:34.421Z,95982.78
2023-03-03T22:22:02.460Z,95985.93
2023-03-03T22:24:31.236Z,95984.40
2023-03-03T22:26:59.367Z,95984.14
2023-03-03T22:29:27.384Z,95980.63
2023-03-03T22:31:55.495Z,95980.13
2023-03-03T22:34:23.783Z,95977.48
2023-03-03T22:36:51.778Z,95979.63
2023-03-03T22:39:19.935Z,95977.70
2023-03-03T22:41:47.839Z,95976.63
2023-03-03T22:44:16.702Z,95974.70
2023-03-03T22:46:44.728Z,95973.90
2023-03-03T22:49:12.801Z,95975.11
2023-03-03T22:51:40.728Z,95976.73
2023-03-03T22:54:08.786Z,95977.65
2023-03-03T22:56:36.824Z,95976.27
2023-03-03T22:59:04.928Z,95974.95
2023-03-03T23:01:32.861Z,95976.48
2023-03-03T23:04:00.900Z,95975.46
2023-03-03T23:06:29.089Z,95974.48
2023-03-03T23:08:57.120Z,95975.58
2023-03-03T23:11:25.467Z,95974.38
2023-03-03T23:13:54.065Z,95978.33
2023-03-03T23:16:22.194Z,95973.91
2023-03-03T23:18:50.151Z,95973.64
2023-03-03T23:21:18.235Z,95975.42
2023-03-03T23:23:46.290Z,95978.23
2023-03-03T23:26:14.303Z,95976.05
2023-03-03T23:28:42.307Z,95972.22
2023-03-03T23:31:10.505Z,95971.55
2023-03-03T23:33:38.657Z,95969.71
2023-03-03T23:36:07.149Z,95968.34
2023-03-03T23:38:35.038Z,95966.83
2023-03-03T23:41:03.298Z,95962.77
2023-03-03T23:43:31.292Z,95960.04
2023-03-03T23:45:59.641Z,95965.36
2023-03-03T23:48:27.617Z,95968.83
2023-03-03T23:50:55.650Z,95968.19
2023-03-03T23:53:23.572Z,95968.70
2023-03-03T23:55:51.567Z,95973.84
2023-03-03T23:58:19.560Z,95972.90
